Terminal Aerodrome Forecast
Issued by NWS

Home | Current Version | Previous Version | Text Only | Print | Product List | Glossary On
Versions: 1 2 3 4 5 6 7 8 9 10 11 12 13 14 15 16 17 18 19 20 21 22
433
FTUS43 KAPX 121737
TAFAPN
TAF
KAPN 121737Z 1218/1318 30015G26KT 6SM -SHSN BLSN SCT025 BKN040
      TEMPO 1218/1220 3/4SM -SHSN BLSN VV018
     FM122000 32013G23KT 6SM -SHSN BLSN OVC035
     FM130500 33008KT P6SM VCSH BKN035=

USA.gov is the U.S. government's official web portal to all federal, state and local government web resources and services.